Time;durP1;ratioP1;P1;durP2;ratioP2;P2;SDS_P1;SDS_P2;PMS_P1;PMS_P2;Temp;Humidity;BMP_temperature;BMP_pressure;BME280_temperature;BME280_humidity;BME280_pressure;Samples;Min_cycle;Max_cycle;Signal;HPM_P1;HPM_P2
2021/08/05 00:02:27;;;;;;;17.33;15.73;;;;;;;15.75;100.00;101066.38;5282597;28;20611;-69
2021/08/05 00:04:58;;;;;;;16.75;15.05;;;;;;;15.77;100.00;101072.34;5269215;28;20046;-69
2021/08/05 00:07:29;;;;;;;15.00;13.70;;;;;;;15.75;100.00;101066.38;5284669;28;20024;-69
2021/08/05 00:10:01;;;;;;;15.25;13.85;;;;;;;15.77;100.00;101061.78;5285772;28;20038;-69
2021/08/05 00:12:32;;;;;;;15.82;14.23;;;;;;;15.72;100.00;101064.03;5286004;28;20028;-69
2021/08/05 00:15:04;;;;;;;17.33;15.50;;;;;;;15.71;100.00;101050.00;5287329;28;20032;-69
2021/08/05 00:17:35;;;;;;;18.02;16.38;;;;;;;15.73;100.00;101061.28;5288305;28;20077;-69
2021/08/05 00:20:07;;;;;;;18.58;17.00;;;;;;;15.70;100.00;101058.94;5286115;28;20424;-69
2021/08/05 00:22:39;;;;;;;19.10;17.30;;;;;;;15.69;100.00;101056.47;5287341;28;20029;-69
2021/08/05 00:25:10;;;;;;;18.30;16.40;;;;;;;15.70;100.00;101048.38;5286670;28;20374;-69
2021/08/05 00:27:42;;;;;;;19.15;17.40;;;;;;;15.72;100.00;101048.19;5287419;28;20028;-69
2021/08/05 00:30:13;;;;;;;17.95;16.27;;;;;;;15.70;100.00;101048.38;5267242;28;20511;-69
2021/08/05 00:32:45;;;;;;;18.42;16.67;;;;;;;15.69;100.00;101045.91;5285551;28;20055;-69
2021/08/05 00:35:16;;;;;;;18.33;16.50;;;;;;;15.78;100.00;101047.56;5286041;28;20475;-69
2021/08/05 00:37:48;;;;;;;18.63;16.70;;;;;;;15.76;100.00;101045.09;5283544;28;20171;-69
2021/08/05 00:40:19;;;;;;;17.25;15.65;;;;;;;15.80;100.00;101042.97;5285995;28;20076;-69
2021/08/05 00:42:50;;;;;;;16.90;15.23;;;;;;;15.71;100.00;101044.72;5284769;28;20505;-69
2021/08/05 00:45:22;;;;;;;16.95;15.45;;;;;;;15.72;100.00;101043.78;5285384;28;20020;-69
2021/08/05 00:47:53;;;;;;;18.05;16.45;;;;;;;15.73;100.00;101036.66;5286105;28;20020;-69
2021/08/05 00:50:24;;;;;;;17.05;15.55;;;;;;;15.73;100.00;101034.03;5284838;28;20166;-69
2021/08/05 00:52:55;;;;;;;17.25;15.55;;;;;;;15.68;100.00;101029.22;5284743;28;20028;-69
2021/08/05 00:55:27;;;;;;;16.60;15.13;;;;;;;15.68;100.00;101031.00;5287113;28;20038;-69
2021/08/05 00:57:59;;;;;;;16.63;14.93;;;;;;;15.66;100.00;101027.72;5286787;28;20052;-69
2021/08/05 01:00:31;;;;;;;16.33;14.82;;;;;;;15.57;100.00;101018.91;5287395;28;20525;-69
2021/08/05 01:03:17;;;;;;;17.65;15.82;;;;;;;15.63;100.00;101020.91;5288464;28;20020;-69
2021/08/05 01:05:56;;;;;;;16.48;14.98;;;;;;;15.56;100.00;101019.88;5284946;28;20038;-69
2021/08/05 01:08:29;;;;;;;18.17;16.48;;;;;;;15.56;100.00;101025.16;5287253;28;20032;-69
2021/08/05 01:11:10;;;;;;;18.73;17.00;;;;;;;15.62;100.00;101021.91;5285712;28;20038;-69
2021/08/05 01:13:50;;;;;;;18.58;16.88;;;;;;;15.62;100.00;101026.34;5285051;28;20035;-69
2021/08/05 01:16:29;;;;;;;18.92;17.20;;;;;;;15.61;100.00;101016.75;5286441;28;20500;-68
2021/08/05 01:19:12;;;;;;;19.27;17.25;;;;;;;15.59;100.00;101024.84;5284133;28;20023;-68
2021/08/05 01:22:11;;;;;;;21.02;18.90;;;;;;;15.69;100.00;101022.94;5283705;28;20044;-68
2021/08/05 01:25:09;;;;;;;20.50;18.50;;;;;;;15.69;100.00;101015.03;5273712;28;20071;-68
2021/08/05 01:27:41;;;;;;;19.30;17.40;;;;;;;15.51;100.00;101014.25;5270087;28;20524;-68
2021/08/05 01:30:12;;;;;;;20.15;18.25;;;;;;;15.56;100.00;101022.53;5285647;28;20070;-68
2021/08/05 01:32:45;;;;;;;20.38;18.48;;;;;;;15.62;100.00;101021.91;5285994;28;20114;-69
2021/08/05 01:35:16;;;;;;;19.95;17.67;;;;;;;15.59;100.00;101024.84;5283452;28;20338;-68
2021/08/05 01:37:49;;;;;;;20.98;17.33;;;;;;;15.51;100.00;101015.06;5285943;28;20024;-68
2021/08/05 01:40:21;;;;;;;20.45;18.55;;;;;;;15.48;100.00;101007.47;5286558;28;20032;-68
2021/08/05 01:42:56;;;;;;;20.65;18.75;;;;;;;15.49;100.00;101013.56;5284546;28;20026;-69
2021/08/05 01:45:28;;;;;;;19.30;17.38;;;;;;;15.47;100.00;101010.28;5285570;28;20035;-68
2021/08/05 01:48:01;;;;;;;21.63;18.90;;;;;;;15.55;100.00;101003.22;5285582;28;20036;-69
2021/08/05 01:50:33;;;;;;;20.02;18.02;;;;;;;15.56;100.00;101001.41;5282815;28;20055;-68
2021/08/05 01:53:05;;;;;;;20.10;18.17;;;;;;;15.53;100.00;101002.56;5284655;28;20032;-68
2021/08/05 01:55:37;;;;;;;21.70;19.67;;;;;;;15.51;100.00;100996.59;5285610;28;20145;-68
2021/08/05 01:58:10;;;;;;;23.30;20.17;;;;;;;15.55;100.00;101002.38;5284063;28;20115;-68
2021/08/05 02:00:41;;;;;;;23.15;20.75;;;;;;;15.50;100.00;101005.50;5279531;28;20032;-68
2021/08/05 02:03:14;;;;;;;22.95;20.58;;;;;;;15.47;100.00;101005.81;5284023;28;20035;-68
2021/08/05 02:06:06;;;;;;;;;;;;;;;15.78;100.00;101000.84;5285606;28;20055;-68
2021/08/05 02:08:48;;;;;;;21.92;19.83;;;;;;;15.53;100.00;100993.78;5285545;28;19995;-68
2021/08/05 02:11:23;;;;;;;23.60;21.20;;;;;;;15.50;100.00;100991.47;5283901;28;20485;-68
2021/08/05 02:13:58;;;;;;;23.63;21.23;;;;;;;15.42;100.00;100980.84;5283350;28;20343;-68
2021/08/05 02:16:31;;;;;;;24.92;22.52;;;;;;;15.41;100.00;100987.13;5285660;28;20154;-68
2021/08/05 02:19:03;;;;;;;24.55;22.25;;;;;;;15.40;100.00;100985.50;5282684;28;20036;-68
2021/08/05 02:21:35;;;;;;;24.48;22.20;;;;;;;15.42;100.00;100988.78;5284027;28;20267;-68
2021/08/05 02:24:07;;;;;;;24.10;21.60;;;;;;;15.40;100.00;100978.38;5285629;28;20028;-68
2021/08/05 02:26:40;;;;;;;25.95;23.50;;;;;;;15.48;100.00;100983.69;5285777;28;20489;-68
2021/08/05 02:29:11;;;;;;;;;;;;;;;15.75;100.00;100981.84;5282940;28;20068;-68
2021/08/05 02:31:43;;;;;;;24.53;22.13;;;;;;;15.49;100.00;100976.59;5284951;28;20333;-68
2021/08/05 02:34:15;;;;;;;27.05;24.15;;;;;;;15.44;100.00;100978.91;5283076;28;20301;-68
2021/08/05 02:36:46;;;;;;;26.67;23.90;;;;;;;15.43;100.00;100971.97;5283902;28;20024;-68
2021/08/05 02:39:18;;;;;;;26.42;23.75;;;;;;;15.46;100.00;100967.22;5284602;28;20027;-68
2021/08/05 02:41:50;;;;;;;26.38;23.95;;;;;;;15.43;100.00;100974.63;5283705;28;20024;-68
2021/08/05 02:44:22;;;;;;;25.13;22.83;;;;;;;15.43;100.00;100974.63;5285377;28;20407;-69
2021/08/05 02:46:54;;;;;;;27.02;24.42;;;;;;;15.39;100.00;100966.19;5283115;28;20227;-69
2021/08/05 02:49:27;;;;;;;25.92;23.48;;;;;;;15.42;100.00;100970.28;5286017;28;20393;-69
2021/08/05 02:51:59;;;;;;;27.38;24.73;;;;;;;15.39;100.00;100963.53;5284232;28;20036;-69
2021/08/05 02:54:31;;;;;;;26.40;23.83;;;;;;;15.42;100.00;100960.59;5285566;28;20467;-69
2021/08/05 02:57:03;;;;;;;25.63;23.23;;;;;;;15.45;100.00;100972.63;5284500;28;20035;-69
2021/08/05 02:59:34;;;;;;;25.40;22.75;;;;;;;15.40;100.00;100967.00;5284311;28;20040;-69
2021/08/05 03:02:06;;;;;;;24.75;22.35;;;;;;;15.38;100.00;100958.41;5283521;28;20024;-69
2021/08/05 03:04:37;;;;;;;25.90;23.38;;;;;;;15.37;100.00;100954.13;5284042;28;20040;-69
2021/08/05 03:07:10;;;;;;;24.67;22.38;;;;;;;15.32;100.00;100958.06;5284341;28;20111;-69
2021/08/05 03:09:41;;;;;;;24.73;22.42;;;;;;;15.32;100.00;100962.53;5283822;28;20024;-69
2021/08/05 03:12:12;;;;;;;25.55;23.25;;;;;;;15.31;100.00;100956.41;5280592;28;20488;-69
2021/08/05 03:14:44;;;;;;;25.70;23.05;;;;;;;15.30;100.00;100949.50;5286751;28;20048;-69
2021/08/05 03:17:15;;;;;;;25.05;22.42;;;;;;;15.29;100.00;100954.91;5286778;28;20035;-69
2021/08/05 03:19:46;;;;;;;24.38;21.85;;;;;;;15.34;100.00;100949.97;5269927;28;20031;-69
2021/08/05 03:22:18;;;;;;;24.48;22.13;;;;;;;15.33;100.00;100953.59;5287769;28;20117;-69
2021/08/05 03:24:49;;;;;;;24.73;22.48;;;;;;;15.30;100.00;100946.84;5286113;28;20474;-69
2021/08/05 03:27:21;;;;;;;24.25;22.05;;;;;;;15.25;100.00;100948.28;5288536;28;20071;-69
2021/08/05 03:29:52;;;;;;;24.45;22.05;;;;;;;15.23;100.00;100950.28;5286952;28;20027;-69
2021/08/05 03:32:23;;;;;;;24.70;22.30;;;;;;;15.28;100.00;100958.53;5289979;28;20106;-69
2021/08/05 03:34:54;;;;;;;24.52;22.13;;;;;;;15.24;100.00;100944.00;5289506;28;20020;-69
2021/08/05 03:37:26;;;;;;;24.73;22.42;;;;;;;15.23;100.00;100945.81;5289524;28;20035;-69
2021/08/05 03:39:57;;;;;;;23.45;21.08;;;;;;;15.14;100.00;100949.38;5286440;28;20108;-69
2021/08/05 03:42:28;;;;;;;25.25;22.60;;;;;;;15.13;100.00;100950.38;5286162;28;20032;-69
2021/08/05 03:45:00;;;;;;;23.23;21.02;;;;;;;15.12;100.00;100945.28;5287158;28;20016;-69
2021/08/05 03:47:31;;;;;;;24.17;21.98;;;;;;;15.08;100.00;100947.41;5286612;28;20028;-70
2021/08/05 03:50:04;;;;;;;24.25;21.95;;;;;;;15.10;100.00;100945.41;5287465;28;20028;-69
2021/08/05 03:52:35;;;;;;;;;;;;;;;15.41;100.00;100947.53;5288960;28;20047;-69
2021/08/05 03:55:12;;;;;;;24.50;22.20;;;;;;;15.06;100.00;100946.72;5286809;28;20380;-69
2021/08/05 03:57:46;;;;;;;23.65;21.42;;;;;;;15.00;100.00;100945.53;5286078;28;20021;-69
2021/08/05 04:00:18;;;;;;;24.50;22.00;;;;;;;14.99;100.00;100938.59;5282755;28;20043;-69
2021/08/05 04:02:49;;;;;;;24.00;21.80;;;;;;;15.00;100.00;100947.34;5285776;28;20020;-69
2021/08/05 04:05:21;;;;;;;25.58;23.00;;;;;;;15.04;100.00;100946.06;5286324;28;20541;-69
2021/08/05 04:07:52;;;;;;;25.88;23.38;;;;;;;15.00;100.00;100945.53;5285985;28;20025;-69
2021/08/05 04:10:23;;;;;;;26.77;23.35;;;;;;;14.96;100.00;100943.34;5287381;28;20043;-69
2021/08/05 04:12:55;;;;;;;26.30;23.85;;;;;;;15.03;100.00;100945.22;5286485;28;20389;-69
2021/08/05 04:15:26;;;;;;;25.10;22.60;;;;;;;15.01;100.00;100949.00;5270345;28;20103;-69
2021/08/05 04:17:57;;;;;;;26.60;23.15;;;;;;;15.07;100.00;100945.72;5287564;28;20027;-69
2021/08/05 04:20:29;;;;;;;26.63;24.10;;;;;;;14.97;100.00;100932.66;5287077;28;20030;-69
2021/08/05 04:23:01;;;;;;;26.45;24.05;;;;;;;15.06;100.00;100936.16;5286429;28;20032;-69
2021/08/05 04:25:32;;;;;;;27.00;24.40;;;;;;;15.05;100.00;100930.06;5287022;28;20054;-69
2021/08/05 04:28:04;;;;;;;26.02;23.00;;;;;;;15.07;100.00;100935.16;5288462;28;20036;-69
2021/08/05 04:30:35;;;;;;;27.25;24.75;;;;;;;15.06;100.00;100923.78;5285917;28;20024;-69
2021/08/05 04:33:06;;;;;;;27.17;24.33;;;;;;;15.09;100.00;100935.84;5287093;28;20032;-69
2021/08/05 04:35:37;;;;;;;28.10;25.30;;;;;;;15.09;100.00;100930.56;5286855;28;20020;-69
2021/08/05 04:38:10;;;;;;;27.45;24.80;;;;;;;15.10;100.00;100929.59;5269542;28;20105;-69
2021/08/05 04:40:42;;;;;;;27.95;25.25;;;;;;;15.13;100.00;100926.63;5285337;28;20028;-69
2021/08/05 04:43:13;;;;;;;26.67;24.08;;;;;;;15.11;100.00;100923.31;5286176;28;20430;-69
2021/08/05 04:45:44;;;;;;;26.27;23.85;;;;;;;15.16;100.00;100926.31;5286560;28;20036;-69
2021/08/05 04:48:16;;;;;;;27.20;24.60;;;;;;;15.15;100.00;100932.56;5286203;28;20035;-69
2021/08/05 04:50:47;;;;;;;26.67;24.20;;;;;;;15.21;100.00;100928.47;5285691;28;20169;-69
2021/08/05 04:53:18;;;;;;;27.05;24.55;;;;;;;15.19;100.00;100927.81;5286472;28;20103;-69
2021/08/05 04:55:50;;;;;;;27.17;24.67;;;;;;;15.24;100.00;100936.09;5286218;28;20025;-69
2021/08/05 04:58:21;;;;;;;28.20;25.40;;;;;;;15.27;100.00;100938.41;5285173;28;20513;-69
2021/08/05 05:00:53;;;;;;;28.00;25.30;;;;;;;15.27;100.00;100935.78;5288281;28;20530;-69
2021/08/05 05:03:24;;;;;;;28.33;25.60;;;;;;;15.33;100.00;100935.13;5283906;28;20035;-69
2021/08/05 05:05:56;;;;;;;27.00;24.48;;;;;;;15.34;100.00;100928.84;5288529;28;20016;-69
2021/08/05 05:08:27;;;;;;;27.88;25.05;;;;;;;15.37;100.00;100920.63;5287203;28;20458;-69
2021/08/05 05:10:58;;;;;;;28.15;25.23;;;;;;;15.41;100.00;100923.78;5286324;28;20044;-69
2021/08/05 05:13:29;;;;;;;26.67;23.98;;;;;;;15.41;100.00;100921.13;5286444;28;20032;-69
2021/08/05 05:16:01;;;;;;;27.02;24.38;;;;;;;15.50;100.00;100928.94;5287796;28;20076;-69
2021/08/05 05:18:32;;;;;;;26.25;23.65;;;;;;;15.54;100.00;100930.25;5285602;28;20032;-69
2021/08/05 05:21:04;;;;;;;27.30;24.45;;;;;;;15.51;100.00;100927.13;5265004;28;20028;-69
2021/08/05 05:23:35;;;;;;;26.38;23.67;;;;;;;15.54;100.00;100926.81;5287558;28;20028;-69
2021/08/05 05:26:07;;;;;;;28.15;25.35;;;;;;;15.54;100.00;100926.81;5285249;28;20033;-69
2021/08/05 05:28:38;;;;;;;26.83;24.25;;;;;;;15.58;100.00;100930.78;5284423;28;20478;-69
2021/08/05 05:31:09;;;;;;;27.67;24.77;;;;;;;15.59;100.00;100927.13;5285393;28;20028;-69
2021/08/05 05:33:41;;;;;;;27.83;25.13;;;;;;;15.61;100.00;100927.81;5286625;28;20034;-69
2021/08/05 05:36:12;;;;;;;29.75;26.85;;;;;;;15.57;100.00;100926.50;5284120;28;20012;-69
2021/08/05 05:38:43;;;;;;;28.17;25.50;;;;;;;15.58;100.00;100920.22;5285417;28;20024;-70
2021/08/05 05:41:15;;;;;;;28.85;26.23;;;;;;;15.61;100.00;100913.75;5286539;28;20406;-70
2021/08/05 05:43:46;;;;;;;28.00;25.45;;;;;;;15.67;100.00;100921.09;5266911;28;20023;-70
2021/08/05 05:46:17;;;;;;;29.45;26.58;;;;;;;15.70;100.00;100916.31;5283782;28;20068;-70
2021/08/05 05:48:48;;;;;;;27.70;25.20;;;;;;;15.73;100.00;100916.00;5286883;28;20564;-70
2021/08/05 05:51:20;;;;;;;28.15;25.40;;;;;;;15.75;100.00;100913.16;5285057;28;20080;-70
2021/08/05 05:53:51;;;;;;;30.55;27.75;;;;;;;15.77;100.00;100916.50;5284257;28;20029;-70
2021/08/05 05:56:22;;;;;;;28.30;25.73;;;;;;;15.78;100.00;100915.50;5284330;28;20743;-70
2021/08/05 05:58:53;;;;;;;28.88;25.98;;;;;;;15.87;100.00;100913.69;5286489;28;20044;-70
2021/08/05 06:01:25;;;;;;;29.13;26.43;;;;;;;15.88;100.00;100910.06;5281140;28;20040;-70
2021/08/05 06:03:56;;;;;;;29.70;26.75;;;;;;;15.88;100.00;100907.44;5285179;28;20351;-70
2021/08/05 06:06:27;;;;;;;28.55;25.88;;;;;;;16.01;100.00;100918.34;5285369;28;20077;-70
2021/08/05 06:09:01;;;;;;;29.52;26.60;;;;;;;16.01;100.00;100918.34;5284425;28;20038;-70
2021/08/05 06:11:32;;;;;;;29.63;26.73;;;;;;;16.06;100.00;100916.00;5277843;28;20066;-70
2021/08/05 06:14:04;;;;;;;30.20;27.10;;;;;;;16.15;100.00;100922.16;5280014;28;20032;-70
2021/08/05 06:16:35;;;;;;;29.45;26.65;;;;;;;16.15;100.00;100906.28;5286013;28;20017;-70
2021/08/05 06:19:07;;;;;;;29.98;27.13;;;;;;;16.26;100.00;100922.66;5282693;28;20429;-70
2021/08/05 06:21:39;;;;;;;32.40;29.30;;;;;;;16.26;100.00;100927.13;5285562;28;20397;-70
2021/08/05 06:24:12;;;;;;;32.58;29.27;;;;;;;16.33;100.00;100921.97;5286552;28;20107;-70
2021/08/05 06:26:43;;;;;;;32.03;28.77;;;;;;;16.33;100.00;100912.25;5282890;28;20054;-70
2021/08/05 06:29:14;;;;;;;31.48;28.55;;;;;;;16.41;100.00;100922.81;5284052;28;20060;-70
2021/08/05 06:31:46;;;;;;;30.80;27.80;;;;;;;16.44;100.00;100922.50;5285675;28;20027;-70
2021/08/05 06:34:17;;;;;;;32.70;29.67;;;;;;;16.52;100.00;100911.91;5283685;28;20024;-70
2021/08/05 06:36:48;;;;;;;32.65;29.75;;;;;;;16.54;100.00;100911.72;5285445;28;20052;-70
2021/08/05 06:39:20;;;;;;;34.13;30.83;;;;;;;16.63;100.00;100916.03;5283497;28;20082;-70
2021/08/05 06:41:51;;;;;;;33.20;29.88;;;;;;;16.70;100.00;100916.16;5285422;28;20032;-69
2021/08/05 06:44:22;;;;;;;34.17;30.90;;;;;;;16.73;100.00;100907.88;5281125;28;20545;-68
2021/08/05 06:46:53;;;;;;;32.40;29.52;;;;;;;16.81;100.00;100909.72;5285656;28;20657;-68
2021/08/05 06:49:25;;;;;;;31.85;28.65;;;;;;;16.85;100.00;100911.03;5280940;28;20646;-68
2021/08/05 06:51:56;;;;;;;32.97;29.67;;;;;;;16.99;100.00;100912.97;5282901;28;20052;-68
2021/08/05 06:54:27;;;;;;;33.05;29.90;;;;;;;17.06;100.00;100907.84;5284823;28;20290;-67
2021/08/05 06:56:58;;;;;;;32.67;29.67;;;;;;;17.09;100.00;100905.69;5281832;28;20031;-68
2021/08/05 06:59:30;;;;;;;31.00;28.20;;;;;;;17.21;100.00;100912.25;5285774;28;20103;-68
2021/08/05 07:02:01;;;;;;;32.53;29.58;;;;;;;17.28;100.00;100912.38;5283272;28;20492;-68
2021/08/05 07:04:33;;;;;;;32.72;29.65;;;;;;;17.32;100.00;100908.41;5284060;28;20244;-68
2021/08/05 07:07:04;;;;;;;34.25;31.05;;;;;;;17.35;100.00;100907.19;5284409;28;20037;-71
2021/08/05 07:09:36;;;;;;;34.67;31.48;;;;;;;17.40;100.00;100904.88;5284609;28;20053;-70
2021/08/05 07:12:07;;;;;;;34.47;31.27;;;;;;;17.42;100.00;100903.69;5278516;28;20073;-70
2021/08/05 07:14:39;;;;;;;35.17;31.63;;;;;;;17.46;100.00;100898.88;5281244;28;20558;-67
2021/08/05 07:17:10;;;;;;;32.88;29.80;;;;;;;17.54;100.00;100906.78;5278805;28;20461;-70
2021/08/05 07:19:42;;;;;;;31.42;28.40;;;;;;;17.56;100.00;100896.84;5283062;28;20052;-69
2021/08/05 07:22:13;;;;;;;32.28;29.27;;;;;;;17.61;100.00;100901.59;5282413;28;20081;-69
2021/08/05 07:24:45;;;;;;;32.00;29.10;;;;;;;17.68;100.00;100905.22;5279187;28;20025;-71
2021/08/05 07:27:20;;;;;;;31.43;28.40;;;;;;;17.73;100.00;100901.06;5269459;28;20024;-68
2021/08/05 07:29:51;;;;;;;29.83;26.63;;;;;;;17.66;100.00;100889.50;5270775;28;20034;-71
2021/08/05 07:32:22;;;;;;;29.27;26.25;;;;;;;17.77;100.00;100903.34;5270148;28;20048;-68
2021/08/05 07:34:54;;;;;;;28.20;25.50;;;;;;;17.77;100.00;100898.06;5270082;28;20038;-71
2021/08/05 07:37:25;;;;;;;28.80;26.23;;;;;;;17.87;100.00;100901.31;5270808;28;20056;-68
2021/08/05 07:39:57;;;;;;;30.37;27.37;;;;;;;17.90;100.00;100890.34;5269350;28;20035;-71
2021/08/05 07:42:28;;;;;;;32.63;29.33;;;;;;;17.92;100.00;100894.50;5273032;28;20067;-68
2021/08/05 07:44:59;;;;;;;30.17;27.27;;;;;;;17.95;100.00;100898.59;5271197;28;20039;-68
2021/08/05 07:47:31;;;;;;;31.60;28.70;;;;;;;18.01;100.00;100895.25;5269961;28;20039;-68
2021/08/05 07:50:03;;;;;;;30.20;27.40;;;;;;;18.08;100.00;100884.75;5270815;28;20273;-67
2021/08/05 07:52:35;;;;;;;29.33;26.60;;;;;;;18.07;100.00;100891.03;5276502;28;20040;-68
2021/08/05 07:55:08;;;;;;;29.53;26.73;;;;;;;18.19;100.00;100892.28;5276348;28;20459;-68
2021/08/05 07:57:39;;;;;;;;;;;;;;;18.44;100.00;100882.28;5269217;28;20319;-68
2021/08/05 08:00:11;;;;;;;27.67;24.85;;;;;;;18.37;100.00;100886.66;5272523;28;19920;-68
2021/08/05 08:02:43;;;;;;;29.58;26.70;;;;;;;18.41;100.00;100883.47;5275166;28;20034;-68
2021/08/05 08:05:15;;;;;;;28.53;25.93;;;;;;;18.58;100.00;100878.81;5275257;28;20039;-67
2021/08/05 08:07:47;;;;;;;30.00;27.08;;;;;;;18.69;100.00;100870.41;5274565;28;20044;-68
2021/08/05 08:10:18;;;;;;;29.57;26.57;;;;;;;18.89;100.00;100880.50;5272390;28;20054;-67
2021/08/05 08:12:49;;;;;;;28.15;25.15;;;;;;;19.10;100.00;100874.47;5273510;28;20302;-67
2021/08/05 08:15:25;;;;;;;27.37;24.50;;;;;;;19.20;100.00;100873.13;5270104;28;20489;-67
2021/08/05 08:17:56;;;;;;;28.63;25.80;;;;;;;19.35;100.00;100874.94;5276427;28;20032;-69
2021/08/05 08:20:27;;;;;;;28.17;25.07;;;;;;;19.51;100.00;100869.44;5282001;28;20493;-69
2021/08/05 08:22:59;;;;;;;28.33;25.43;;;;;;;19.57;100.00;100871.31;5278298;28;20019;-69
2021/08/05 08:25:32;;;;;;;26.43;23.60;;;;;;;19.66;100.00;100869.38;5283604;28;20115;-69
2021/08/05 08:28:04;;;;;;;26.58;23.88;;;;;;;19.68;100.00;100870.84;5283231;28;20028;-69
2021/08/05 08:30:36;;;;;;;25.05;22.48;;;;;;;19.90;100.00;100873.53;5283798;28;20036;-69
2021/08/05 08:33:07;;;;;;;25.93;23.10;;;;;;;19.97;97.66;100871.75;5279548;28;20059;-69
2021/08/05 08:35:38;;;;;;;21.17;19.10;;;;;;;20.11;96.09;100862.03;5284834;28;20320;-69
2021/08/05 08:38:10;;;;;;;22.63;20.33;;;;;;;20.14;96.50;100865.13;5286557;28;20073;-68
2021/08/05 08:40:41;;;;;;;21.00;18.77;;;;;;;20.32;95.74;100867.31;5280149;28;20032;-68
2021/08/05 08:43:13;;;;;;;19.30;17.33;;;;;;;20.47;92.73;100864.56;5281481;28;20043;-69
2021/08/05 08:45:44;;;;;;;14.87;12.40;;;;;;;20.61;89.83;100861.00;5281343;28;20024;-69
2021/08/05 08:48:16;;;;;;;14.03;12.63;;;;;;;20.70;88.68;100860.84;5283123;28;20728;-69
2021/08/05 08:50:49;;;;;;;14.70;13.00;;;;;;;20.81;88.11;100855.78;5277272;28;20044;-69
2021/08/05 08:53:26;;;;;;;14.02;12.55;;;;;;;20.87;86.84;100859.50;5280713;28;20032;-69
2021/08/05 08:55:58;;;;;;;12.75;11.45;;;;;;;21.04;87.37;100850.16;5283563;28;20067;-69
2021/08/05 08:58:29;;;;;;;11.77;10.57;;;;;;;21.36;85.43;100850.50;5283010;28;20107;-69
2021/08/05 09:01:01;;;;;;;11.87;10.77;;;;;;;21.36;84.04;100850.50;5284826;28;20093;-69
2021/08/05 09:03:33;;;;;;;12.83;11.50;;;;;;;21.55;86.43;100848.91;5284847;28;20067;-69
2021/08/05 09:06:04;;;;;;;11.75;10.65;;;;;;;21.68;85.67;100840.13;5281854;28;20123;-69
2021/08/05 09:08:39;;;;;;;13.53;11.97;;;;;;;21.86;86.15;100851.84;5288515;28;20165;-68
2021/08/05 09:11:10;;;;;;;11.90;10.73;;;;;;;22.04;84.01;100850.38;5285425;28;20024;-69
2021/08/05 09:13:42;;;;;;;13.10;11.80;;;;;;;22.15;81.37;100846.31;5263442;28;20025;-69
2021/08/05 09:16:39;;;;;;;13.43;12.20;;;;;;;22.28;85.27;100846.31;5286693;28;20123;-69
2021/08/05 09:19:15;;;;;;;12.50;11.27;;;;;;;22.07;80.49;100841.97;5281565;28;20055;-69
2021/08/05 09:21:51;;;;;;;21.27;12.13;;;;;;;22.25;80.71;100844.06;5281677;28;20131;-69
2021/08/05 09:24:29;;;;;;;13.80;12.27;;;;;;;22.36;84.04;100847.94;5278934;28;20436;-68
2021/08/05 09:27:03;;;;;;;13.68;12.27;;;;;;;22.34;83.73;100837.47;5276834;28;20067;-69
2021/08/05 09:29:43;;;;;;;13.70;12.32;;;;;;;22.50;80.46;100837.03;5274057;28;20024;-68
2021/08/05 09:32:25;;;;;;;12.82;10.73;;;;;;;22.80;80.09;100828.50;5279179;28;20036;-69
2021/08/05 09:35:07;;;;;;;14.20;11.00;;;;;;;22.95;79.65;100831.78;5273588;28;20028;-69
2021/08/05 09:37:40;;;;;;;11.30;10.25;;;;;;;22.97;74.32;100828.91;5282246;28;20073;-68
2021/08/05 09:40:15;;;;;;;12.82;11.45;;;;;;;22.90;74.86;100823.56;5276781;28;20039;-68
2021/08/05 09:42:56;;;;;;;12.15;10.95;;;;;;;22.92;76.87;100818.88;5278165;28;20032;-67
2021/08/05 09:45:35;;;;;;;13.65;11.02;;;;;;;22.87;77.95;100809.78;5282698;28;20389;-68
2021/08/05 09:48:06;;;;;;;13.60;10.85;;;;;;;22.65;76.85;100818.06;5278882;28;20043;-68
2021/08/05 09:50:38;;;;;;;14.43;10.73;;;;;;;22.66;78.92;100818.94;5279120;28;20633;-68
2021/08/05 09:53:10;;;;;;;13.63;12.27;;;;;;;22.70;78.37;100817.47;5278994;28;20031;-68
2021/08/05 09:55:43;;;;;;;14.27;12.40;;;;;;;22.81;77.25;100811.47;5286383;28;20116;-68
2021/08/05 09:58:25;;;;;;;11.85;10.65;;;;;;;23.12;79.19;100815.28;5286996;28;20397;-68
2021/08/05 10:01:05;;;;;;;;;;;;;;;23.48;79.82;100809.28;5288119;28;20032;-68
2021/08/05 10:03:39;;;;;;;12.50;11.20;;;;;;;23.39;76.31;100808.72;5282562;28;20376;-68
2021/08/05 10:06:10;;;;;;;11.52;10.30;;;;;;;23.62;77.22;100807.34;5275572;28;20516;-68
2021/08/05 10:08:43;;;;;;;13.07;11.77;;;;;;;23.52;74.25;100799.78;5273252;28;20021;-68
2021/08/05 10:11:16;;;;;;;13.88;12.43;;;;;;;23.54;74.71;100805.75;5275070;28;20059;-68
2021/08/05 10:13:47;;;;;;;;;;;;;;;24.12;77.70;100802.03;5277266;28;20036;-68
2021/08/05 10:16:18;;;;;;;11.73;10.57;;;;;;;24.08;76.10;100795.47;5278668;28;20369;-68
2021/08/05 10:18:50;;;;;;;11.33;10.33;;;;;;;24.24;72.89;100789.53;5283218;28;20024;-68
2021/08/05 10:21:21;;;;;;;11.83;10.83;;;;;;;24.54;76.15;100796.88;5284070;28;20109;-68
2021/08/05 10:23:52;;;;;;;12.93;11.73;;;;;;;24.49;74.17;100792.19;5280443;28;20028;-68
2021/08/05 10:26:24;;;;;;;15.87;14.23;;;;;;;24.26;72.00;100787.47;5284337;28;20066;-68
2021/08/05 10:28:56;;;;;;;15.33;13.80;;;;;;;24.31;75.36;100784.94;5281990;28;20503;-68
2021/08/05 10:31:27;;;;;;;15.13;13.63;;;;;;;24.36;72.43;100792.28;5281428;28;20485;-68
2021/08/05 10:33:59;;;;;;;14.60;13.20;;;;;;;24.45;71.38;100786.47;5281982;28;20332;-69
2021/08/05 10:36:30;;;;;;;12.87;11.53;;;;;;;24.70;73.87;100780.19;5282253;28;20371;-68
2021/08/05 10:39:01;;;;;;;14.13;12.73;;;;;;;24.41;71.56;100784.47;5262984;28;20115;-68
2021/08/05 10:41:33;;;;;;;13.13;11.83;;;;;;;24.15;73.21;100777.50;5281752;28;20036;-68
2021/08/05 10:44:05;;;;;;;14.83;13.07;;;;;;;23.90;72.27;100788.22;5275761;28;20437;-68
2021/08/05 10:46:36;;;;;;;13.25;11.88;;;;;;;23.73;73.68;100780.75;5284649;28;20094;-68
2021/08/05 10:49:08;;;;;;;12.83;11.63;;;;;;;23.50;74.01;100777.81;5283850;28;20036;-68
2021/08/05 10:51:41;;;;;;;12.00;10.80;;;;;;;23.66;74.86;100782.66;5277155;28;20048;-68
2021/08/05 10:54:52;;;;;;;13.50;11.25;;;;;;;23.51;74.76;100777.59;5273277;28;20063;-68
2021/08/05 10:57:25;;;;;;;13.50;12.13;;;;;;;23.17;74.73;100780.69;5280108;28;20038;-68
2021/08/05 11:00:00;;;;;;;12.15;11.00;;;;;;;23.25;73.85;100775.91;5275559;28;20024;-68
2021/08/05 11:02:49;;;;;;;12.27;11.00;;;;;;;23.19;75.36;100773.31;5274500;28;20040;-68
2021/08/05 11:05:23;;;;;;;12.25;11.15;;;;;;;22.99;75.85;100781.41;5275973;28;20593;-68
2021/08/05 11:08:15;;;;;;;12.65;11.55;;;;;;;23.13;76.50;100774.16;5280768;28;20032;-68
2021/08/05 11:10:46;;;;;;;11.88;10.77;;;;;;;22.72;75.81;100773.47;5282216;28;20032;-68
2021/08/05 11:13:21;;;;;;;12.30;11.00;;;;;;;22.89;75.38;100773.03;5277587;28;20287;-68
2021/08/05 11:15:53;;;;;;;12.52;11.13;;;;;;;22.70;76.18;100759.53;5274595;28;20035;-68
2021/08/05 11:18:24;;;;;;;11.80;10.70;;;;;;;22.78;76.49;100761.16;5279554;28;20390;-68
2021/08/05 11:20:55;;;;;;;12.60;11.30;;;;;;;22.80;75.81;100759.06;5280794;28;20098;-68
2021/08/05 11:23:28;;;;;;;13.07;11.73;;;;;;;22.82;76.72;100759.69;5275587;28;20052;-68
2021/08/05 11:25:59;;;;;;;;;;;;;;;23.27;76.83;100746.31;5284338;28;20024;-68
2021/08/05 11:28:31;;;;;;;12.95;11.65;;;;;;;22.97;76.31;100757.59;5282006;28;19912;-68
2021/08/05 11:31:04;;;;;;;13.47;11.93;;;;;;;23.00;74.28;100754.50;5281688;28;20397;-68